createdAt,value
2023-03-05T00:00:08.634Z,32.60
2023-03-05T00:03:00.124Z,34.40
2023-03-05T00:05:29.326Z,33.90
2023-03-05T00:08:03.425Z,36.00
2023-03-05T00:10:31.443Z,36.70
2023-03-05T00:12:59.445Z,36.80
2023-03-05T00:15:27.520Z,38.00
2023-03-05T00:17:56.626Z,33.20
2023-03-05T00:20:23.368Z,34.70
2023-03-05T00:22:50.147Z,39.20
2023-03-05T00:25:17.162Z,43.50
2023-03-05T00:27:43.895Z,42.60
2023-03-05T00:30:11.573Z,40.10
2023-03-05T00:32:38.587Z,33.90
2023-03-05T00:35:07.134Z,33.90
2023-03-05T00:37:34.467Z,35.20
2023-03-05T00:40:01.769Z,32.10
2023-03-05T00:42:30.104Z,31.20
2023-03-05T00:44:56.925Z,29.60
2023-03-05T00:47:23.663Z,28.10
2023-03-05T00:49:50.561Z,27.90
2023-03-05T00:52:17.502Z,29.10
2023-03-05T00:54:49.506Z,29.20
2023-03-05T00:57:20.193Z,31.00
2023-03-05T00:59:47.210Z,31.70
2023-03-05T01:02:17.985Z,29.90
2023-03-05T01:04:47.436Z,29.80
2023-03-05T01:07:15.341Z,27.70
2023-03-05T01:09:42.056Z,32.90
2023-03-05T01:12:11.628Z,29.20
2023-03-05T01:14:42.831Z,30.60
2023-03-05T01:17:09.664Z,34.50
2023-03-05T01:19:36.422Z,34.30
2023-03-05T01:22:10.276Z,32.80
2023-03-05T01:24:37.098Z,33.30
2023-03-05T01:27:04.126Z,30.90
2023-03-05T01:29:33.400Z,31.60
2023-03-05T01:32:01.736Z,33.70
2023-03-05T01:34:28.602Z,34.10
2023-03-05T01:36:58.918Z,29.70
2023-03-05T01:39:25.711Z,29.80
2023-03-05T01:41:52.510Z,31.80
2023-03-05T01:44:26.918Z,32.20
2023-03-05T01:46:54.540Z,29.70
2023-03-05T01:49:24.202Z,27.40
2023-03-05T01:52:09.797Z,28.90
2023-03-05T01:54:47.995Z,27.70
2023-03-05T01:57:27.778Z,26.70
2023-03-05T02:00:03.391Z,26.00
2023-03-05T02:02:42.121Z,25.50
2023-03-05T02:05:31.311Z,24.90
2023-03-05T02:08:02.785Z,25.10
2023-03-05T02:10:34.808Z,25.70
2023-03-05T02:15:32.304Z,25.20
2023-03-05T02:18:00.685Z,27.40
2023-03-05T02:20:32.870Z,27.80
2023-03-05T02:23:13.023Z,26.80
2023-03-05T02:25:41.058Z,27.00
2023-03-05T02:28:18.067Z,28.40
2023-03-05T02:30:46.232Z,27.10
2023-03-05T02:33:18.197Z,28.10
2023-03-05T02:35:45.806Z,25.50
2023-03-05T02:38:15.636Z,26.00
2023-03-05T02:40:42.956Z,26.20
2023-03-05T02:43:13.312Z,28.10
2023-03-05T02:45:40.274Z,28.00
2023-03-05T02:48:09.662Z,26.50
2023-03-05T02:50:39.097Z,26.00
2023-03-05T02:53:08.630Z,28.50
2023-03-05T02:55:35.480Z,25.00
2023-03-05T02:58:03.647Z,25.10
2023-03-05T03:00:30.698Z,24.60
2023-03-05T03:03:17.336Z,26.70
2023-03-05T03:05:48.706Z,24.00
2023-03-05T03:08:18.975Z,21.30
2023-03-05T03:10:45.934Z,28.90
2023-03-05T03:13:23.468Z,26.00
2023-03-05T03:16:11.592Z,27.90
2023-03-05T03:18:42.250Z,27.30
2023-03-05T03:21:36.297Z,19.60
2023-03-05T03:24:26.831Z,21.00
2023-03-05T03:27:02.939Z,19.70
2023-03-05T03:30:17.556Z,23.10
2023-03-05T03:32:54.699Z,19.40
2023-03-05T03:35:37.245Z,18.90
2023-03-05T03:38:11.375Z,21.90
2023-03-05T03:40:54.468Z,15.50
2023-03-05T03:43:23.754Z,19.80
2023-03-05T03:46:02.064Z,17.20
2023-03-05T03:48:52.115Z,20.20
2023-03-05T03:51:33.926Z,15.50
2023-03-05T03:54:15.412Z,19.30
2023-03-05T03:57:01.259Z,17.40
2023-03-05T03:59:31.527Z,17.70
2023-03-05T04:02:00.870Z,15.50
2023-03-05T04:04:52.869Z,15.30
2023-03-05T04:07:30.980Z,12.70
2023-03-05T04:10:09.443Z,13.70
2023-03-05T04:12:51.247Z,8.80
2023-03-05T04:15:27.903Z,7.70
2023-03-05T04:18:27.958Z,9.40
2023-03-05T04:21:14.592Z,8.90
2023-03-05T04:23:57.581Z,8.00
2023-03-05T04:26:39.217Z,10.70
2023-03-05T04:29:06.095Z,5.60
2023-03-05T04:31:36.643Z,8.00
2023-03-05T04:34:07.287Z,7.70
2023-03-05T04:39:36.504Z,6.90
2023-03-05T04:42:18.677Z,6.00
2023-03-05T04:45:26.813Z,8.80
2023-03-05T04:48:00.587Z,8.40
2023-03-05T04:53:00.942Z,9.30
2023-03-05T04:55:32.174Z,11.60
2023-03-05T04:58:05.167Z,13.70
2023-03-05T05:00:33.229Z,14.10
2023-03-05T05:03:00.147Z,12.30
2023-03-05T05:05:28.538Z,13.20
2023-03-05T05:07:58.495Z,12.70
2023-03-05T05:10:32.129Z,10.90
2023-03-05T05:12:59.073Z,13.10
2023-03-05T05:15:28.090Z,11.50
2023-03-05T05:17:57.294Z,11.70
2023-03-05T05:20:28.967Z,13.80
2023-03-05T05:22:57.387Z,14.20
2023-03-05T05:25:25.341Z,12.50
2023-03-05T05:27:59.469Z,13.50
2023-03-05T05:30:28.599Z,13.40
2023-03-05T05:32:58.462Z,14.60
2023-03-05T05:35:27.703Z,15.30
2023-03-05T05:37:54.631Z,16.20
2023-03-05T05:40:21.434Z,16.90
2023-03-05T05:42:54.753Z,18.60
2023-03-05T05:45:21.607Z,19.10
2023-03-05T05:47:50.934Z,16.90
2023-03-05T05:50:22.737Z,17.60
2023-03-05T05:52:51.849Z,17.70
2023-03-05T05:55:19.965Z,18.00
2023-03-05T05:57:46.842Z,17.20
2023-03-05T06:00:14.538Z,18.20
2023-03-05T06:02:43.188Z,18.10
2023-03-05T06:05:14.727Z,17.20
2023-03-05T06:07:44.567Z,18.80
2023-03-05T06:10:13.777Z,16.90
2023-03-05T06:12:42.896Z,21.40
2023-03-05T06:15:21.969Z,19.60
2023-03-05T06:17:54.092Z,17.00
2023-03-05T06:20:42.225Z,18.70
2023-03-05T06:23:09.072Z,20.70
2023-03-05T06:25:37.333Z,18.30
2023-03-05T06:28:04.333Z,21.50
2023-03-05T06:30:31.174Z,15.10
2023-03-05T06:32:58.987Z,15.40
2023-03-05T06:35:41.581Z,14.90
2023-03-05T06:38:30.291Z,17.40
2023-03-05T06:41:14.567Z,15.30
2023-03-05T06:43:49.142Z,14.60
2023-03-05T06:46:54.653Z,15.10
2023-03-05T06:49:24.981Z,15.40
2023-03-05T06:51:55.602Z,15.50
2023-03-05T06:54:40.274Z,15.30
2023-03-05T06:57:12.171Z,17.30
2023-03-05T06:59:53.299Z,19.70
2023-03-05T07:02:24.100Z,23.00
2023-03-05T07:04:53.920Z,25.90
2023-03-05T07:07:27.255Z,25.40
2023-03-05T07:09:58.154Z,24.00
2023-03-05T07:13:05.198Z,24.90
2023-03-05T07:15:44.522Z,23.30
2023-03-05T07:18:23.438Z,23.30
2023-03-05T07:22:21.927Z,20.20
2023-03-05T07:28:58.270Z,18.50
2023-03-05T07:32:35.293Z,15.90
2023-03-05T07:35:51.609Z,17.30
2023-03-05T07:39:42.233Z,15.40
2023-03-05T07:42:38.041Z,15.70
2023-03-05T07:45:40.296Z,14.90
2023-03-05T07:48:38.407Z,14.50
2023-03-05T07:52:14.338Z,14.50
2023-03-05T07:54:29.183Z,15.70
2023-03-05T07:57:21.956Z,15.30
2023-03-05T08:31:31.312Z,11.20
2023-03-05T08:34:15.893Z,12.90
2023-03-05T08:38:28.702Z,12.40
2023-03-05T08:41:42.745Z,13.50
2023-03-05T08:44:25.685Z,13.90
2023-03-05T08:47:05.008Z,16.30
2023-03-05T08:49:39.838Z,15.10
2023-03-05T08:52:22.170Z,14.70
2023-03-05T08:54:50.252Z,14.10
2023-03-05T08:57:27.397Z,14.90
2023-03-05T08:59:59.056Z,14.60
2023-03-05T09:02:26.232Z,15.30
2023-03-05T09:05:01.853Z,14.50
2023-03-05T09:07:32.972Z,15.30
2023-03-05T09:10:23.321Z,15.70
2023-03-05T09:16:37.875Z,16.70
2023-03-05T09:34:52.063Z,14.90
2023-03-05T09:39:14.294Z,15.70
2023-03-05T09:48:15.608Z,13.90
2023-03-05T09:50:41.782Z,15.10
2023-03-05T10:00:33.888Z,15.00
2023-03-05T10:06:52.647Z,11.70
2023-03-05T10:10:23.982Z,11.00
2023-03-05T10:17:17.527Z,12.50
2023-03-05T10:18:17.329Z,13.50
2023-03-05T10:26:34.718Z,13.10
2023-03-05T10:28:21.969Z,12.80
2023-03-05T10:31:12.379Z,13.10
2023-03-05T10:34:14.837Z,14.50
2023-03-05T10:36:57.142Z,13.60
2023-03-05T10:39:51.429Z,15.20
2023-03-05T10:42:32.875Z,14.40
2023-03-05T10:46:08.036Z,14.20
2023-03-05T10:52:40.426Z,16.30
2023-03-05T10:55:16.578Z,14.40
2023-03-05T10:57:11.926Z,17.80
2023-03-05T10:59:03.270Z,17.20
2023-03-05T11:02:01.770Z,16.30
2023-03-05T11:04:49.166Z,17.80
2023-03-05T11:07:15.987Z,16.10
2023-03-05T11:10:14.603Z,18.40
2023-03-05T11:19:41.682Z,15.90
2023-03-05T11:22:15.391Z,15.60
2023-03-05T11:25:22.190Z,16.20
2023-03-05T11:28:33.276Z,15.30
2023-03-05T11:31:35.289Z,17.20
2023-03-05T11:34:37.943Z,16.60
2023-03-05T11:38:30.594Z,16.30
2023-03-05T11:42:00.223Z,15.40
2023-03-05T11:44:53.285Z,12.90
2023-03-05T11:47:45.367Z,15.40
2023-03-05T11:50:35.393Z,16.20
2023-03-05T11:53:46.253Z,14.00
2023-03-05T11:56:51.872Z,14.80
2023-03-05T11:59:54.541Z,15.10
2023-03-05T12:02:37.333Z,15.20
2023-03-05T12:09:37.472Z,13.00
2023-03-05T12:12:48.517Z,12.90
2023-03-05T12:16:07.204Z,12.50
2023-03-05T12:19:30.136Z,12.40
2023-03-05T12:22:15.602Z,14.80
2023-03-05T12:24:51.692Z,13.10
2023-03-05T12:27:40.084Z,13.40
2023-03-05T12:30:35.446Z,13.40
2023-03-05T12:33:16.676Z,13.90
2023-03-05T12:35:54.756Z,14.20
2023-03-05T12:38:33.547Z,13.50
2023-03-05T12:41:37.575Z,13.70
2023-03-05T12:44:09.197Z,12.00
2023-03-05T12:47:18.854Z,14.10
2023-03-05T12:49:55.832Z,12.80
2023-03-05T12:52:31.480Z,14.00
2023-03-05T12:55:08.796Z,12.50
2023-03-05T12:57:45.561Z,13.90
2023-03-05T13:04:03.754Z,12.40
2023-03-05T13:06:37.123Z,13.10
2023-03-05T13:09:21.120Z,17.90
2023-03-05T13:11:51.620Z,12.80
2023-03-05T13:14:40.643Z,11.80
2023-03-05T13:17:29.252Z,12.00
2023-03-05T13:19:58.123Z,13.00
2023-03-05T13:22:28.248Z,12.80
2023-03-05T13:25:22.499Z,13.30
2023-03-05T13:28:15.184Z,11.50
2023-03-05T13:30:55.430Z,11.70
2023-03-05T13:33:30.346Z,10.30
2023-03-05T13:36:24.941Z,11.10
2023-03-05T13:39:07.035Z,10.80
2023-03-05T13:41:34.097Z,11.30
2023-03-05T13:44:32.445Z,11.10
2023-03-05T13:47:20.025Z,11.10
2023-03-05T13:50:06.598Z,11.60
2023-03-05T13:52:39.712Z,10.10
2023-03-05T13:55:18.124Z,11.80
2023-03-05T13:57:53.723Z,10.20
2023-03-05T14:00:28.922Z,10.60
2023-03-05T14:03:06.802Z,11.10
2023-03-05T14:05:47.209Z,10.90
2023-03-05T14:08:33.414Z,11.30
2023-03-05T14:11:24.244Z,10.90
2023-03-05T14:14:07.415Z,11.20
2023-03-05T14:16:36.840Z,9.30
2023-03-05T14:19:34.215Z,10.00
2023-03-05T14:22:25.254Z,10.10
2023-03-05T14:25:02.837Z,10.40
2023-03-05T14:27:39.884Z,10.20
2023-03-05T14:30:21.298Z,9.60
2023-03-05T14:32:54.378Z,10.10
2023-03-05T14:35:26.891Z,10.60
2023-03-05T14:37:56.677Z,9.60
2023-03-05T14:40:33.279Z,11.00
2023-03-05T14:43:03.596Z,10.10
2023-03-05T14:45:43.091Z,10.60
2023-03-05T14:48:33.143Z,9.60
2023-03-05T14:51:04.599Z,10.30
2023-03-05T14:53:39.807Z,10.50
2023-03-05T14:56:31.663Z,9.90
2023-03-05T14:58:59.745Z,10.50
2023-03-05T15:01:27.624Z,11.10
2023-03-05T15:04:05.748Z,10.80
2023-03-05T15:06:42.599Z,10.10
2023-03-05T15:09:11.898Z,10.20
2023-03-05T15:11:41.068Z,11.00
2023-03-05T15:14:16.445Z,11.40
2023-03-05T15:16:46.485Z,9.60
2023-03-05T15:19:23.193Z,10.70
2023-03-05T15:22:08.292Z,10.00
2023-03-05T15:25:04.182Z,10.50
2023-03-05T15:27:40.648Z,10.70
2023-03-05T15:30:20.482Z,10.90
2023-03-05T15:33:06.391Z,10.60
2023-03-05T15:39:12.719Z,11.30
2023-03-05T15:42:06.402Z,10.40
2023-03-05T15:45:06.514Z,11.70
2023-03-05T15:47:53.775Z,11.90
2023-03-05T15:50:25.958Z,13.50
2023-03-05T15:52:59.918Z,12.70
2023-03-05T15:56:01.003Z,11.30
2023-03-05T15:58:39.908Z,11.40
2023-03-05T16:01:23.121Z,11.00
2023-03-05T16:04:17.002Z,10.90
2023-03-05T16:07:09.971Z,11.20
2023-03-05T16:09:53.235Z,10.80
2023-03-05T16:12:50.252Z,11.30
2023-03-05T16:15:21.041Z,12.30
2023-03-05T16:17:52.773Z,13.00
2023-03-05T16:20:33.622Z,12.90
2023-03-05T16:23:21.070Z,12.40
2023-03-05T16:25:52.846Z,12.00
2023-03-05T16:28:34.518Z,12.60
2023-03-05T16:31:50.743Z,12.30
2023-03-05T16:34:32.265Z,10.80
2023-03-05T16:37:10.811Z,10.10
2023-03-05T16:39:50.762Z,9.20
2023-03-05T16:42:18.733Z,9.30
2023-03-05T16:44:49.330Z,8.40
2023-03-05T16:47:18.325Z,9.00
2023-03-05T16:49:45.400Z,8.10
2023-03-05T16:52:18.818Z,8.30
2023-03-05T16:54:46.615Z,8.50
2023-03-05T16:57:18.933Z,8.30
2023-03-05T16:59:45.908Z,8.60
2023-03-05T17:02:19.963Z,8.90
2023-03-05T17:04:48.035Z,9.30
2023-03-05T17:07:14.834Z,8.70
2023-03-05T17:09:43.877Z,9.40
2023-03-05T17:12:11.933Z,9.00
2023-03-05T17:17:08.201Z,7.90
2023-03-05T17:19:38.768Z,7.90
2023-03-05T17:22:09.063Z,7.80
2023-03-05T17:24:37.396Z,8.80
2023-03-05T17:27:04.366Z,8.30
2023-03-05T17:29:33.790Z,8.70
2023-03-05T17:32:02.347Z,8.40
2023-03-05T17:34:36.699Z,7.60
2023-03-05T17:37:06.819Z,7.60
2023-03-05T17:39:49.097Z,7.10
2023-03-05T17:42:23.431Z,7.10
2023-03-05T17:44:50.446Z,8.10
2023-03-05T17:47:17.946Z,7.10
2023-03-05T17:49:49.758Z,7.40
2023-03-05T17:52:20.559Z,7.00
2023-03-05T17:54:49.802Z,8.10
2023-03-05T17:57:17.002Z,7.60
2023-03-05T17:59:50.194Z,8.00
2023-03-05T18:02:17.599Z,8.00
2023-03-05T18:04:46.885Z,9.30
2023-03-05T18:07:13.925Z,8.20
2023-03-05T18:09:40.891Z,8.60
2023-03-05T18:12:14.633Z,8.20
2023-03-05T18:14:58.981Z,8.30
2023-03-05T18:17:38.412Z,8.00
2023-03-05T18:20:27.681Z,8.00
2023-03-05T18:23:16.370Z,8.10
2023-03-05T18:26:09.573Z,8.30
2023-03-05T18:29:33.606Z,8.50
2023-03-05T18:32:18.308Z,7.40
2023-03-05T18:35:03.649Z,8.70
2023-03-05T18:37:45.067Z,7.60
2023-03-05T18:40:41.197Z,7.80
2023-03-05T18:43:21.378Z,8.70
2023-03-05T18:46:18.851Z,8.00
2023-03-05T18:48:47.910Z,7.80
2023-03-05T18:51:30.164Z,7.90
2023-03-05T18:54:08.157Z,7.20
2023-03-05T18:56:43.572Z,7.40
2023-03-05T18:59:11.756Z,7.80
2023-03-05T19:01:38.713Z,8.10
2023-03-05T19:04:09.707Z,8.40
2023-03-05T19:06:37.981Z,7.50
2023-03-05T19:09:20.351Z,7.80
2023-03-05T19:12:07.581Z,7.70
2023-03-05T19:14:36.869Z,7.70
2023-03-05T19:17:08.946Z,6.80
2023-03-05T19:19:36.091Z,6.50
2023-03-05T19:22:03.677Z,6.70
2023-03-05T19:24:39.349Z,6.90
2023-03-05T19:27:14.379Z,6.60
2023-03-05T19:29:46.667Z,6.00
2023-03-05T19:32:33.971Z,6.20
2023-03-05T19:35:27.486Z,7.20
2023-03-05T19:38:02.031Z,6.60
2023-03-05T19:40:29.472Z,7.70
2023-03-05T19:42:58.461Z,7.30
2023-03-05T19:45:25.918Z,8.20
2023-03-05T19:47:52.789Z,8.80
2023-03-05T19:50:22.972Z,9.00
2023-03-05T19:52:51.965Z,8.20
2023-03-05T19:55:19.214Z,8.40
2023-03-05T19:57:50.317Z,8.60
2023-03-05T20:00:17.985Z,9.00
2023-03-05T20:02:48.317Z,9.70
2023-03-05T20:05:15.441Z,9.00
2023-03-05T20:07:43.620Z,8.50
2023-03-05T20:10:15.060Z,8.40
2023-03-05T20:12:44.509Z,8.50
2023-03-05T20:15:12.024Z,9.50
2023-03-05T20:17:40.387Z,8.60
2023-03-05T20:20:11.302Z,9.10
2023-03-05T20:22:44.171Z,8.60
2023-03-05T20:25:24.285Z,10.00
2023-03-05T20:27:54.648Z,9.60
2023-03-05T20:30:22.202Z,9.40
2023-03-05T20:32:49.502Z,9.90
2023-03-05T20:35:18.944Z,9.30
2023-03-05T20:38:24.611Z,9.50
2023-03-05T20:41:04.003Z,9.30
2023-03-05T20:43:44.533Z,8.50
2023-03-05T20:46:23.964Z,8.00
2023-03-05T20:48:54.173Z,8.50
2023-03-05T20:51:25.739Z,8.00
2023-03-05T20:54:01.747Z,7.00
2023-03-05T20:56:43.267Z,7.60
2023-03-05T20:59:39.442Z,6.80
2023-03-05T21:02:08.827Z,7.00
2023-03-05T21:04:39.308Z,6.90
2023-03-05T21:07:09.057Z,7.50
2023-03-05T21:09:36.719Z,6.90
2023-03-05T21:12:10.261Z,7.90
2023-03-05T21:14:44.106Z,8.10
2023-03-05T21:17:17.465Z,7.40
2023-03-05T21:20:06.331Z,7.80
2023-03-05T21:22:51.669Z,7.60
2023-03-05T21:25:35.893Z,7.30
2023-03-05T21:28:26.454Z,7.60
2023-03-05T21:31:17.158Z,7.10
2023-03-05T21:33:55.360Z,7.80
2023-03-05T21:36:25.921Z,7.00
2023-03-05T21:38:55.777Z,7.90
2023-03-05T21:41:30.648Z,7.30
2023-03-05T21:44:03.904Z,7.50
2023-03-05T21:46:56.772Z,7.10
2023-03-05T21:49:32.995Z,7.60
2023-03-05T21:52:13.134Z,7.40
2023-03-05T21:54:52.500Z,7.30
2023-03-05T21:57:25.949Z,7.20
2023-03-05T22:00:24.597Z,7.80
2023-03-05T22:03:04.673Z,7.50
2023-03-05T22:05:49.791Z,7.30
2023-03-05T22:08:21.547Z,7.00
2023-03-05T22:10:59.090Z,7.10
2023-03-05T22:13:35.005Z,6.80
2023-03-05T22:16:25.730Z,7.40
2023-03-05T22:19:17.745Z,7.10
2023-03-05T22:21:52.116Z,6.30
2023-03-05T22:24:24.565Z,7.40
2023-03-05T22:27:01.442Z,6.70
2023-03-05T22:29:34.889Z,7.10
2023-03-05T22:32:07.340Z,6.30
2023-03-05T22:34:41.493Z,6.90
2023-03-05T22:37:32.396Z,6.70
2023-03-05T22:40:39.523Z,6.10
2023-03-05T22:43:20.145Z,6.80
2023-03-05T22:45:54.955Z,6.80
2023-03-05T22:48:32.471Z,6.90
2023-03-05T22:51:14.276Z,6.60
2023-03-05T22:53:53.239Z,6.80
2023-03-05T22:56:32.819Z,7.40
2023-03-05T22:59:02.474Z,7.20
2023-03-05T23:01:43.340Z,7.20
2023-03-05T23:04:55.194Z,7.10
2023-03-05T23:07:34.508Z,6.80
2023-03-05T23:10:28.458Z,6.50
2023-03-05T23:13:28.457Z,6.90
2023-03-05T23:16:18.299Z,6.80
2023-03-05T23:18:51.867Z,7.60
2023-03-05T23:21:29.681Z,7.40
2023-03-05T23:24:23.047Z,7.30
2023-03-05T23:27:07.107Z,6.50
2023-03-05T23:30:18.405Z,7.40
2023-03-05T23:33:21.531Z,6.50
2023-03-05T23:36:20.718Z,6.90
2023-03-05T23:39:02.845Z,6.90
2023-03-05T23:41:30.039Z,7.30
2023-03-05T23:44:09.552Z,7.80
2023-03-05T23:46:50.867Z,7.20
2023-03-05T23:49:26.139Z,6.90
2023-03-05T23:51:55.417Z,7.40
2023-03-05T23:54:24.910Z,6.70
2023-03-05T23:57:02.858Z,7.60
2023-03-05T23:59:39.499Z,8.30
